createdAt,value
2018-04-07T00:00:27.493Z,52.61
2018-04-07T00:01:27.492Z,52.71
2018-04-07T00:02:27.535Z,53.03
2018-04-07T00:03:27.475Z,52.85
2018-04-07T00:04:27.528Z,52.95
2018-04-07T00:05:27.510Z,52.89
2018-04-07T00:06:27.507Z,52.86
2018-04-07T00:07:27.502Z,53.01
2018-04-07T00:08:27.491Z,53.14
2018-04-07T00:09:27.527Z,53.1
2018-04-07T00:10:27.498Z,53.02
2018-04-07T00:11:27.481Z,53.12
2018-04-07T00:12:27.771Z,53.38
2018-04-07T00:13:27.488Z,53.53
2018-04-07T00:14:27.548Z,53.36
2018-04-07T00:15:27.558Z,53.42
2018-04-07T00:16:27.498Z,53.41
2018-04-07T00:17:27.515Z,53.53
2018-04-07T00:18:27.486Z,53.66
2018-04-07T00:19:27.536Z,53.5
2018-04-07T00:20:27.507Z,53.48
2018-04-07T00:21:27.497Z,53.52
2018-04-07T00:22:27.792Z,53.74
2018-04-07T00:23:27.519Z,53.83
2018-04-07T00:24:27.491Z,53.86
2018-04-07T00:25:27.488Z,53.8
2018-04-07T00:26:27.495Z,53.69
2018-04-07T00:27:27.527Z,53.72
2018-04-07T00:28:27.499Z,53.8
2018-04-07T00:29:27.515Z,54.08
2018-04-07T00:30:27.511Z,53.77
2018-04-07T00:31:27.500Z,53.66
2018-04-07T00:32:27.537Z,54.23
2018-04-07T00:33:27.486Z,53.84
2018-04-07T00:34:27.541Z,54.06
2018-04-07T00:35:27.529Z,54.29
2018-04-07T00:36:27.499Z,54.26
2018-04-07T00:37:27.673Z,54.16
2018-04-07T00:38:27.490Z,54.12
2018-04-07T00:39:27.491Z,54.23
2018-04-07T00:40:27.505Z,54.22
2018-04-07T00:41:27.529Z,54.15
2018-04-07T00:42:27.549Z,54.15
2018-04-07T00:43:27.499Z,54.12
2018-04-07T00:44:27.514Z,54.34
2018-04-07T00:45:27.508Z,54.61
2018-04-07T00:46:27.569Z,54.09
2018-04-07T00:47:27.537Z,54.27
2018-04-07T00:48:27.675Z,54.53
2018-04-07T00:49:27.509Z,54.72
2018-04-07T00:50:27.508Z,54.82
2018-04-07T00:51:27.508Z,54.79
2018-04-07T00:52:27.502Z,54.86
2018-04-07T00:53:27.504Z,54.85
2018-04-07T00:54:27.542Z,54.88
2018-04-07T00:55:27.522Z,54.86
2018-04-07T00:56:27.511Z,55.12
2018-04-07T00:57:27.518Z,55.15
2018-04-07T00:58:27.515Z,54.61
2018-04-07T00:59:27.518Z,54.91
2018-04-07T01:00:27.545Z,54.97
2018-04-07T01:01:27.561Z,54.92
2018-04-07T01:02:27.567Z,55.02
2018-04-07T01:03:27.533Z,55.14
2018-04-07T01:04:27.556Z,54.99
2018-04-07T01:05:27.538Z,55.11
2018-04-07T01:06:27.585Z,54.91
2018-04-07T01:07:27.542Z,55.27
2018-04-07T01:08:27.535Z,55.12
2018-04-07T01:09:27.532Z,55.2
2018-04-07T01:10:27.563Z,55.36
2018-04-07T01:11:27.570Z,55.16
2018-04-07T01:12:27.533Z,55.12
2018-04-07T01:13:27.530Z,55.54
2018-04-07T01:14:27.528Z,55.36
2018-04-07T01:15:27.583Z,55.38
2018-04-07T01:16:27.569Z,55.1
2018-04-07T01:17:27.595Z,55.05
2018-04-07T01:18:27.549Z,55.31
2018-04-07T01:19:27.581Z,55.56
2018-04-07T01:20:27.518Z,55.58
2018-04-07T01:21:27.608Z,55.16
2018-04-07T01:22:27.566Z,55.21
2018-04-07T01:23:27.548Z,55.31
2018-04-07T01:24:27.653Z,55.32
2018-04-07T01:25:27.562Z,55.38
2018-04-07T01:26:27.577Z,55.46
2018-04-07T01:27:27.534Z,55.67
2018-04-07T01:28:27.595Z,55.73
2018-04-07T01:29:27.561Z,55.55
2018-04-07T01:30:27.537Z,55.38
2018-04-07T01:31:27.531Z,55.53
2018-04-07T01:32:27.537Z,55.55
2018-04-07T01:33:27.553Z,55.59
2018-04-07T01:34:27.565Z,55.55
2018-04-07T01:35:27.540Z,55.9
2018-04-07T01:36:27.547Z,55.56
2018-04-07T01:37:27.574Z,55.51
2018-04-07T01:38:27.528Z,55.88
2018-04-07T01:39:27.622Z,56
2018-04-07T01:40:27.538Z,56.16
2018-04-07T01:41:27.571Z,56.16
2018-04-07T01:42:27.533Z,56.03
2018-04-07T01:43:27.540Z,56.23
2018-04-07T01:44:27.538Z,56.27
2018-04-07T01:45:27.537Z,56.23
2018-04-07T01:46:27.533Z,56.33
2018-04-07T01:47:27.556Z,56.22
2018-04-07T01:48:27.584Z,56.18
2018-04-07T01:49:27.565Z,56.31
2018-04-07T01:50:27.595Z,56.49
2018-04-07T01:51:27.576Z,56.21
2018-04-07T01:52:27.541Z,56.46
2018-04-07T01:53:27.551Z,56.4
2018-04-07T01:54:27.563Z,56.45
2018-04-07T01:55:27.579Z,56.38
2018-04-07T01:56:27.569Z,56.51
2018-04-07T01:57:27.566Z,56.66
2018-04-07T01:58:27.549Z,56.71
2018-04-07T01:59:27.558Z,56.9
2018-04-07T02:00:27.699Z,56.93
2018-04-07T02:01:27.586Z,56.88
2018-04-07T02:02:27.546Z,56.86
2018-04-07T02:03:27.568Z,56.69
2018-04-07T02:04:27.570Z,56.71
2018-04-07T02:05:27.557Z,56.83
2018-04-07T02:06:27.542Z,57.03
2018-04-07T02:07:27.539Z,57.18
2018-04-07T02:08:27.571Z,57.04
2018-04-07T02:09:27.528Z,57.18
2018-04-07T02:10:27.534Z,56.89
2018-04-07T02:11:27.532Z,57.07
2018-04-07T02:12:27.538Z,57.1
2018-04-07T02:13:27.566Z,57.08
2018-04-07T02:14:27.606Z,56.98
2018-04-07T02:15:27.552Z,56.95
2018-04-07T02:16:27.552Z,56.72
2018-04-07T02:17:27.542Z,57.04
2018-04-07T02:18:27.549Z,56.98
2018-04-07T02:19:27.606Z,57.25
2018-04-07T02:20:27.568Z,57.28
2018-04-07T02:21:27.549Z,56.87
2018-04-07T02:22:27.548Z,57.16
2018-04-07T02:23:27.567Z,57.32
2018-04-07T02:24:27.564Z,57.16
2018-04-07T02:25:27.550Z,57.33
2018-04-07T02:26:27.551Z,57.33
2018-04-07T02:27:27.556Z,57.27
2018-04-07T02:28:27.573Z,57.28
2018-04-07T02:29:27.556Z,57.44
2018-04-07T02:30:27.561Z,57.17
2018-04-07T02:31:27.554Z,57.45
2018-04-07T02:32:27.573Z,57.52
2018-04-07T02:33:27.573Z,57.57
2018-04-07T02:34:27.651Z,57.54
2018-04-07T02:35:27.548Z,57.66
2018-04-07T02:36:27.586Z,57.58
2018-04-07T02:37:27.564Z,57.53
2018-04-07T02:38:27.586Z,57.64
2018-04-07T02:39:27.599Z,57.55
2018-04-07T02:40:27.560Z,57.7
2018-04-07T02:41:27.551Z,57.81
2018-04-07T02:42:27.589Z,57.67
2018-04-07T02:43:27.580Z,57.66
2018-04-07T02:44:27.587Z,57.65
2018-04-07T02:45:27.601Z,57.81
2018-04-07T02:46:27.563Z,57.74
2018-04-07T02:47:27.552Z,57.73
2018-04-07T02:48:27.570Z,57.7
2018-04-07T02:49:27.658Z,57.81
2018-04-07T02:50:27.677Z,57.72
2018-04-07T02:51:27.580Z,57.8
2018-04-07T02:52:27.573Z,57.92
2018-04-07T02:53:27.565Z,57.97
2018-04-07T02:54:27.613Z,57.87
2018-04-07T02:55:27.734Z,57.61
2018-04-07T02:56:27.586Z,57.65
2018-04-07T02:57:27.548Z,57.77
2018-04-07T02:58:27.548Z,57.58
2018-04-07T02:59:27.586Z,57.62
2018-04-07T03:00:27.557Z,57.69
2018-04-07T03:01:27.556Z,57.6
2018-04-07T03:02:27.578Z,57.86
2018-04-07T03:03:27.572Z,57.84
2018-04-07T03:04:27.586Z,57.6
2018-04-07T03:05:27.590Z,57.57
2018-04-07T03:06:27.588Z,57.57
2018-04-07T03:07:27.568Z,57.83
2018-04-07T03:08:27.569Z,57.48
2018-04-07T03:09:27.581Z,57.74
2018-04-07T03:10:27.567Z,57.6
2018-04-07T03:11:27.558Z,57.7
2018-04-07T03:12:27.555Z,57.72
2018-04-07T03:13:27.553Z,57.55
2018-04-07T03:14:27.548Z,57.64
2018-04-07T03:15:27.737Z,57.57
2018-04-07T03:16:27.574Z,57.52
2018-04-07T03:17:27.564Z,57.39
2018-04-07T03:18:27.553Z,57.73
2018-04-07T03:19:27.566Z,57.59
2018-04-07T03:20:27.584Z,57.69
2018-04-07T03:21:27.614Z,57.8
2018-04-07T03:22:27.560Z,57.76
2018-04-07T03:23:27.560Z,57.79
2018-04-07T03:24:27.583Z,57.96
2018-04-07T03:25:27.577Z,57.99
2018-04-07T03:26:27.567Z,58.12
2018-04-07T03:27:27.592Z,58.1
2018-04-07T03:28:27.568Z,58.01
2018-04-07T03:29:27.590Z,58.13
2018-04-07T03:30:27.605Z,58.15
2018-04-07T03:31:27.582Z,58.42
2018-04-07T03:32:27.566Z,58.22
2018-04-07T03:33:27.577Z,58.14
2018-04-07T03:34:27.596Z,58.09
2018-04-07T03:35:27.589Z,58.03
2018-04-07T03:36:27.582Z,58.2
2018-04-07T03:37:27.564Z,58.25
2018-04-07T03:38:27.575Z,58.16
2018-04-07T03:39:27.566Z,58.26
2018-04-07T03:40:27.592Z,58.34
2018-04-07T03:41:27.942Z,58.34
2018-04-07T03:42:27.568Z,58.28
2018-04-07T03:43:27.567Z,58.23
2018-04-07T03:44:27.571Z,58.34
2018-04-07T03:45:27.656Z,58.23
2018-04-07T03:46:27.613Z,58.38
2018-04-07T03:47:27.564Z,58.53
2018-04-07T03:48:27.578Z,58.47
2018-04-07T03:49:27.577Z,58.48
2018-04-07T03:50:27.673Z,58.5
2018-04-07T03:51:27.602Z,58.07
2018-04-07T03:52:27.623Z,58.36
2018-04-07T03:53:27.583Z,58.39
2018-04-07T03:54:27.596Z,58.38
2018-04-07T03:55:27.582Z,58.47
2018-04-07T03:56:27.623Z,58.68
2018-04-07T03:57:27.606Z,58.54
2018-04-07T03:58:27.595Z,58.45
2018-04-07T03:59:27.585Z,58.37
2018-04-07T04:00:27.603Z,58.55
2018-04-07T04:01:27.625Z,58.55
2018-04-07T04:02:27.602Z,58.38
2018-04-07T04:03:27.619Z,58.34
2018-04-07T04:04:27.588Z,58.5
2018-04-07T04:05:27.620Z,58.61
2018-04-07T04:06:27.627Z,58.45
2018-04-07T04:07:27.591Z,58.32
2018-04-07T04:08:27.592Z,58.44
2018-04-07T04:09:27.585Z,58.65
2018-04-07T04:10:27.585Z,58.6
2018-04-07T04:11:27.610Z,58.84
2018-04-07T04:12:27.575Z,59.04
2018-04-07T04:13:27.595Z,58.81
2018-04-07T04:14:27.575Z,58.66
2018-04-07T04:15:27.595Z,58.9
2018-04-07T04:16:27.613Z,58.91
2018-04-07T04:17:27.622Z,59.15
2018-04-07T04:18:27.593Z,59.11
2018-04-07T04:19:27.612Z,59.14
2018-04-07T04:20:27.603Z,59.25
2018-04-07T04:21:27.667Z,59.21
2018-04-07T04:22:27.646Z,59.46
2018-04-07T04:23:27.845Z,59.44
2018-04-07T04:24:27.597Z,59.51
2018-04-07T04:25:27.597Z,59.72
2018-04-07T04:26:27.612Z,59.76
2018-04-07T04:27:27.609Z,59.81
2018-04-07T04:28:27.588Z,59.83
2018-04-07T04:29:27.610Z,59.96
2018-04-07T04:30:27.593Z,59.82
2018-04-07T04:31:27.598Z,59.86
2018-04-07T04:32:27.618Z,60.06
2018-04-07T04:33:27.633Z,60.01
2018-04-07T04:34:27.618Z,60.02
2018-04-07T04:35:27.636Z,60.11
2018-04-07T04:36:27.735Z,60.05
2018-04-07T04:37:27.595Z,60.28
2018-04-07T04:38:27.602Z,60.34
2018-04-07T04:39:27.603Z,60.24
2018-04-07T04:40:27.590Z,60.5
2018-04-07T04:41:27.668Z,60.39
2018-04-07T04:42:27.635Z,60.34
2018-04-07T04:43:27.592Z,60.52
2018-04-07T04:44:27.593Z,60.45
2018-04-07T04:45:27.600Z,60.42
2018-04-07T04:46:27.602Z,60.6
2018-04-07T04:47:27.674Z,60.76
2018-04-07T04:48:27.622Z,60.62
2018-04-07T04:49:27.606Z,60.48
2018-04-07T04:50:27.636Z,60.45
2018-04-07T04:51:27.588Z,60.6
2018-04-07T04:52:27.632Z,60.42
2018-04-07T04:53:27.602Z,60.68
2018-04-07T04:54:27.669Z,60.42
2018-04-07T04:55:27.596Z,60.69
2018-04-07T04:56:27.639Z,60.63
2018-04-07T04:57:27.940Z,60.68
2018-04-07T04:58:27.610Z,60.6
2018-04-07T04:59:27.638Z,60.92
2018-04-07T05:00:27.623Z,60.86
2018-04-07T05:01:27.618Z,60.93
2018-04-07T05:02:27.616Z,60.81
2018-04-07T05:03:27.591Z,60.92
2018-04-07T05:04:27.618Z,61.04
2018-04-07T05:05:27.597Z,61.04
2018-04-07T05:06:27.600Z,61.09
2018-04-07T05:07:27.608Z,61.07
2018-04-07T05:08:27.621Z,61.05
2018-04-07T05:09:27.599Z,61.12
2018-04-07T05:10:27.604Z,61.16
2018-04-07T05:11:27.611Z,61.12
2018-04-07T05:12:27.607Z,61.37
2018-04-07T05:13:27.649Z,61.5
2018-04-07T05:14:27.636Z,61.51
2018-04-07T05:15:27.638Z,61.56
2018-04-07T05:16:27.620Z,61.5
2018-04-07T05:17:27.618Z,61.65
2018-04-07T05:18:27.642Z,61.69
2018-04-07T05:19:27.623Z,61.71
2018-04-07T05:20:27.612Z,61.64
2018-04-07T05:21:27.616Z,61.75
2018-04-07T05:22:27.640Z,61.59
2018-04-07T05:23:27.653Z,61.62
2018-04-07T05:24:27.619Z,61.63
2018-04-07T05:25:27.692Z,61.6
2018-04-07T05:26:27.618Z,61.71
2018-04-07T05:27:27.608Z,61.9
2018-04-07T05:28:27.640Z,61.69
2018-04-07T05:29:27.633Z,61.78
2018-04-07T05:30:27.629Z,61.93
2018-04-07T05:31:27.641Z,62.04
2018-04-07T05:32:27.635Z,61.92
2018-04-07T05:33:27.648Z,61.74
2018-04-07T05:34:27.645Z,61.72
2018-04-07T05:35:27.634Z,61.81
2018-04-07T05:36:27.637Z,61.9
2018-04-07T05:37:27.653Z,61.87
2018-04-07T05:38:27.692Z,61.77
2018-04-07T05:39:27.630Z,61.81
2018-04-07T05:40:27.643Z,61.75
2018-04-07T05:41:27.647Z,61.82
2018-04-07T05:42:27.622Z,61.74
2018-04-07T05:43:27.684Z,61.84
2018-04-07T05:44:27.636Z,61.91
2018-04-07T05:45:27.622Z,61.82
2018-04-07T05:46:27.663Z,61.94
2018-04-07T05:47:27.648Z,61.82
2018-04-07T05:48:27.659Z,61.84
2018-04-07T05:49:27.647Z,61.88
2018-04-07T05:50:27.614Z,61.84
2018-04-07T05:51:27.656Z,61.87
2018-04-07T05:52:27.632Z,61.55
2018-04-07T05:53:27.657Z,61.7
2018-04-07T05:54:27.634Z,61.55
2018-04-07T05:55:27.641Z,61.73
2018-04-07T05:56:27.768Z,61.69
2018-04-07T05:57:27.628Z,61.72
2018-04-07T05:58:27.668Z,61.38
2018-04-07T05:59:27.636Z,61.54
2018-04-07T06:00:27.643Z,61.81
2018-04-07T06:01:27.654Z,61.67
2018-04-07T06:02:27.647Z,61.61
2018-04-07T06:03:27.664Z,61.5
2018-04-07T06:04:27.654Z,61.59
2018-04-07T06:05:27.626Z,61.75
2018-04-07T06:06:27.645Z,61.59
2018-04-07T06:07:27.629Z,61.55
2018-04-07T06:08:27.929Z,61.61
2018-04-07T06:09:27.656Z,61.55
2018-04-07T06:10:27.661Z,61.46
2018-04-07T06:11:27.643Z,61.38
2018-04-07T06:12:27.644Z,61.33
2018-04-07T06:13:27.681Z,61.58
2018-04-07T06:14:27.663Z,61.32
2018-04-07T06:15:27.634Z,61.27
2018-04-07T06:16:27.650Z,61.34
2018-04-07T06:17:27.646Z,61.32
2018-04-07T06:18:27.648Z,61.27
2018-04-07T06:19:27.699Z,61.27
2018-04-07T06:20:27.636Z,61.28
2018-04-07T06:21:27.675Z,61.25
2018-04-07T06:22:27.650Z,61.28
2018-04-07T06:23:27.638Z,61.28
2018-04-07T06:24:27.683Z,61.37
2018-04-07T06:25:27.648Z,61.18
2018-04-07T06:26:27.657Z,61.22
2018-04-07T06:27:27.745Z,61.15
2018-04-07T06:28:27.680Z,61.28
2018-04-07T06:29:27.648Z,60.96
2018-04-07T06:30:27.645Z,60.87
2018-04-07T06:31:27.674Z,61.02
2018-04-07T06:32:27.642Z,60.86
2018-04-07T06:33:27.666Z,60.99
2018-04-07T06:34:27.677Z,60.63
2018-04-07T06:35:27.625Z,60.6
2018-04-07T06:36:27.648Z,60.94
2018-04-07T06:37:27.640Z,60.97
2018-04-07T06:38:27.637Z,60.65
2018-04-07T06:39:27.682Z,60.51
2018-04-07T06:40:27.635Z,60.37
2018-04-07T06:41:27.660Z,60.32
2018-04-07T06:42:27.644Z,60.58
2018-04-07T06:43:27.644Z,60.55
2018-04-07T06:44:27.644Z,60.43
2018-04-07T06:45:27.661Z,60.59
2018-04-07T06:46:27.654Z,60.35
2018-04-07T06:47:27.640Z,60.58
2018-04-07T06:48:27.831Z,60.4
2018-04-07T06:49:27.662Z,60.15
2018-04-07T06:50:27.670Z,60.04
2018-04-07T06:51:27.656Z,60.03
2018-04-07T06:52:27.655Z,60.04
2018-04-07T06:53:27.660Z,60.32
2018-04-07T06:54:27.651Z,60.18
2018-04-07T06:55:27.650Z,60.09
2018-04-07T06:56:27.657Z,60.18
2018-04-07T06:57:27.649Z,60.2
2018-04-07T06:58:27.736Z,60.07
2018-04-07T06:59:27.762Z,60.21
2018-04-07T07:00:27.670Z,59.92
2018-04-07T07:01:27.664Z,59.92
2018-04-07T07:02:27.691Z,60.09
2018-04-07T07:03:27.639Z,59.73
2018-04-07T07:04:27.659Z,59.85
2018-04-07T07:05:27.651Z,59.5
2018-04-07T07:06:27.649Z,59.87
2018-04-07T07:07:27.647Z,59.82
2018-04-07T07:08:27.688Z,59.57
2018-04-07T07:09:27.644Z,59.48
2018-04-07T07:10:27.650Z,59.43
2018-04-07T07:11:27.659Z,59.37
2018-04-07T07:12:27.652Z,59.64
2018-04-07T07:13:27.714Z,59.47
2018-04-07T07:14:27.643Z,59.19
2018-04-07T07:15:27.667Z,59.52
2018-04-07T07:16:27.656Z,59.2
2018-04-07T07:17:27.650Z,59.16
2018-04-07T07:18:27.674Z,59.13
2018-04-07T07:19:27.673Z,59.36
2018-04-07T07:20:27.647Z,59.44
2018-04-07T07:21:27.662Z,58.9
2018-04-07T07:22:27.666Z,59.1
2018-04-07T07:23:27.670Z,58.84
2018-04-07T07:24:27.685Z,58.86
2018-04-07T07:25:27.676Z,58.83
2018-04-07T07:26:27.686Z,58.51
2018-04-07T07:27:27.681Z,58.59
2018-04-07T07:28:27.655Z,58.49
2018-04-07T07:29:27.715Z,58.46
2018-04-07T07:30:27.673Z,58.56
2018-04-07T07:31:27.673Z,58.42
2018-04-07T07:32:27.667Z,58.36
2018-04-07T07:33:27.680Z,58.39
2018-04-07T07:34:27.651Z,58.34
2018-04-07T07:35:27.701Z,58.18
2018-04-07T07:36:27.726Z,58.48
2018-04-07T07:37:27.669Z,58.19
2018-04-07T07:38:27.688Z,58.19
2018-04-07T07:39:27.682Z,58.39
2018-04-07T07:40:27.685Z,58.48
2018-04-07T07:41:27.728Z,58.01
2018-04-07T07:42:27.670Z,58.12
2018-04-07T07:43:27.690Z,58.25
2018-04-07T07:44:27.686Z,57.74
2018-04-07T07:45:27.674Z,57.79
2018-04-07T07:46:27.667Z,57.73
2018-04-07T07:47:27.855Z,57.36
2018-04-07T07:48:27.816Z,57.74
2018-04-07T07:49:27.671Z,57.92
2018-04-07T07:50:27.680Z,57.52
2018-04-07T07:51:27.672Z,57.19
2018-04-07T07:52:27.677Z,57.4
2018-04-07T07:53:27.684Z,57.21
2018-04-07T07:54:27.661Z,57.59
2018-04-07T07:55:27.659Z,57.15
2018-04-07T07:56:27.676Z,57.08
2018-04-07T07:57:27.691Z,56.71
2018-04-07T07:58:28.072Z,56.97
2018-04-07T07:59:27.694Z,56.68
2018-04-07T08:00:27.741Z,56.74
2018-04-07T08:01:27.707Z,56.44
2018-04-07T08:02:27.688Z,56.29
2018-04-07T08:03:27.701Z,56.3
2018-04-07T08:04:27.685Z,56.15
2018-04-07T08:05:27.673Z,56
2018-04-07T08:06:27.677Z,56.38
2018-04-07T08:07:27.675Z,56.17
2018-04-07T08:08:27.677Z,55.94
2018-04-07T08:09:27.918Z,56.21
2018-04-07T08:10:27.673Z,56.52
2018-04-07T08:11:27.689Z,56.38
2018-04-07T08:12:27.681Z,56.21
2018-04-07T08:13:27.688Z,56.07
2018-04-07T08:14:27.704Z,55.99
2018-04-07T08:15:27.721Z,56.08
2018-04-07T08:16:27.678Z,56.06
2018-04-07T08:17:27.686Z,56.4
2018-04-07T08:18:27.678Z,56.26
2018-04-07T08:19:27.674Z,56.18
2018-04-07T08:20:27.951Z,56.11
2018-04-07T08:21:27.671Z,55.83
2018-04-07T08:22:27.691Z,55.96
2018-04-07T08:23:27.690Z,55.86
2018-04-07T08:24:27.694Z,55.86
2018-04-07T08:25:27.705Z,55.81
2018-04-07T08:26:27.681Z,55.16
2018-04-07T08:27:27.774Z,55.55
2018-04-07T08:28:27.689Z,55.57
2018-04-07T08:29:27.674Z,55.3
2018-04-07T08:30:27.679Z,55.52
2018-04-07T08:31:27.925Z,55.19
2018-04-07T08:32:27.697Z,55.09
2018-04-07T08:33:27.691Z,55.37
2018-04-07T08:34:27.843Z,55.57
2018-04-07T08:35:27.690Z,55.22
2018-04-07T08:36:27.706Z,55.4
2018-04-07T08:37:27.683Z,55.04
2018-04-07T08:38:27.678Z,54.73
2018-04-07T08:39:28.202Z,55.3
2018-04-07T08:40:27.702Z,54.79
2018-04-07T08:41:27.691Z,55.24
2018-04-07T08:42:27.712Z,55.19
2018-04-07T08:43:27.698Z,54.47
2018-04-07T08:44:27.692Z,54.89
2018-04-07T08:45:27.683Z,54.95
2018-04-07T08:46:27.882Z,54.99
2018-04-07T08:47:27.716Z,54.81
2018-04-07T08:48:27.690Z,54.67
2018-04-07T08:49:27.693Z,54.42
2018-04-07T08:50:27.686Z,55.11
2018-04-07T08:51:27.714Z,54.25
2018-04-07T08:52:27.700Z,54.76
2018-04-07T08:53:27.892Z,54.78
2018-04-07T08:54:27.697Z,54.53
2018-04-07T08:55:27.695Z,54.62
2018-04-07T08:56:27.693Z,54.02
2018-04-07T08:57:27.711Z,53.69
2018-04-07T08:58:27.692Z,54.34
2018-04-07T08:59:27.688Z,54.27
2018-04-07T09:00:27.704Z,54.85
2018-04-07T09:01:27.705Z,54.07
2018-04-07T09:02:27.769Z,53.44
2018-04-07T09:03:27.706Z,52.66
2018-04-07T09:04:27.711Z,53.32
2018-04-07T09:05:27.711Z,52.64
2018-04-07T09:06:27.696Z,52.7
2018-04-07T09:07:27.698Z,53.25
2018-04-07T09:08:27.691Z,53.64
2018-04-07T09:09:27.703Z,53.8
2018-04-07T09:10:27.710Z,53.14
2018-04-07T09:11:27.700Z,53.6
2018-04-07T09:12:27.696Z,53.45
2018-04-07T09:13:27.694Z,53.2
2018-04-07T09:14:27.713Z,51.83
2018-04-07T09:15:27.701Z,52.26
2018-04-07T09:16:27.716Z,52.82
2018-04-07T09:17:27.684Z,52.94
2018-04-07T09:18:27.709Z,53.3
2018-04-07T09:19:27.879Z,53.48
2018-04-07T09:20:27.735Z,52.69
2018-04-07T09:21:27.756Z,52.49
2018-04-07T09:22:27.710Z,52.32
2018-04-07T09:23:27.715Z,52.95
2018-04-07T09:24:27.756Z,52.88
2018-04-07T09:25:27.721Z,52.4
2018-04-07T09:26:27.758Z,52.33
2018-04-07T09:27:27.713Z,52.06
2018-04-07T09:28:27.706Z,51.56
2018-04-07T09:29:27.714Z,51.15
2018-04-07T09:30:27.712Z,51.08
2018-04-07T09:31:27.748Z,51.09
2018-04-07T09:32:27.786Z,51.54
2018-04-07T09:33:27.758Z,51.33
2018-04-07T09:34:27.726Z,51.28
2018-04-07T09:35:27.698Z,51.62
2018-04-07T09:36:27.740Z,51.66
2018-04-07T09:37:27.701Z,51
2018-04-07T09:38:27.700Z,50.95
2018-04-07T09:39:27.754Z,51.05
2018-04-07T09:40:27.715Z,51.91
2018-04-07T09:41:27.747Z,51.97
2018-04-07T09:42:27.707Z,51.8
2018-04-07T09:43:27.698Z,51.54
2018-04-07T09:44:27.724Z,51.13
2018-04-07T09:45:27.712Z,50.76
2018-04-07T09:46:27.726Z,51.19
2018-04-07T09:47:27.721Z,51.03
2018-04-07T09:48:27.703Z,50.98
2018-04-07T09:49:27.708Z,50.77
2018-04-07T09:50:27.726Z,50.62
2018-04-07T09:51:27.991Z,50.43
2018-04-07T09:52:27.932Z,49.91
2018-04-07T09:53:27.712Z,50.75
2018-04-07T09:54:27.722Z,48.52
2018-04-07T09:55:27.737Z,49.61
2018-04-07T09:56:27.756Z,50.53
2018-04-07T09:57:27.717Z,50.06
2018-04-07T09:58:27.718Z,49.49
2018-04-07T09:59:27.732Z,49.45
2018-04-07T10:00:27.734Z,48.43
2018-04-07T10:01:27.813Z,48.02
2018-04-07T10:02:27.723Z,48.45
2018-04-07T10:03:27.796Z,49.8
2018-04-07T10:04:28.049Z,49.63
2018-04-07T10:05:27.718Z,49.25
2018-04-07T10:06:27.742Z,49.29
2018-04-07T10:07:27.730Z,48.72
2018-04-07T10:08:27.736Z,48.82
2018-04-07T10:09:27.726Z,48.4
2018-04-07T10:10:27.744Z,49.07
2018-04-07T10:11:27.757Z,48.72
2018-04-07T10:12:27.749Z,47.75
2018-04-07T10:13:27.874Z,47.91
2018-04-07T10:14:27.719Z,48.22
2018-04-07T10:15:27.746Z,48.65
2018-04-07T10:16:27.748Z,48.26
2018-04-07T10:17:27.730Z,47.61
2018-04-07T10:18:27.731Z,46.54
2018-04-07T10:19:27.733Z,46.27
2018-04-07T10:20:27.750Z,48.27
2018-04-07T10:21:27.952Z,48.34
2018-04-07T10:22:27.737Z,46.69
2018-04-07T10:23:27.732Z,47.15
2018-04-07T10:24:27.735Z,47.82
2018-04-07T10:25:27.726Z,47.03
2018-04-07T10:26:27.764Z,46.69
2018-04-07T10:27:27.727Z,46.7
2018-04-07T10:28:27.874Z,47.93
2018-04-07T10:29:27.922Z,47.84
2018-04-07T10:30:27.851Z,47.16
2018-04-07T10:31:27.899Z,46.37
2018-04-07T10:32:27.867Z,46.65
2018-04-07T10:33:27.825Z,47.03
2018-04-07T10:34:27.835Z,45.83
2018-04-07T10:35:27.919Z,46.29
2018-04-07T10:36:27.875Z,46.36
2018-04-07T10:37:27.810Z,46.07
2018-04-07T10:38:27.779Z,46.37
2018-04-07T10:39:27.827Z,46.26
2018-04-07T10:40:27.861Z,46.38
2018-04-07T10:41:27.882Z,46.93
2018-04-07T10:42:27.954Z,46.52
2018-04-07T10:43:27.861Z,46.29
2018-04-07T10:44:27.855Z,45.55
2018-04-07T10:45:27.842Z,45.29
2018-04-07T10:46:27.885Z,46.23
2018-04-07T10:47:27.805Z,45.79
2018-04-07T10:48:27.870Z,45.86
2018-04-07T10:49:27.880Z,45.31
2018-04-07T10:50:27.805Z,45.04
2018-04-07T10:51:27.833Z,45.84
2018-04-07T10:52:27.850Z,45.17
2018-04-07T10:53:27.843Z,45.77
2018-04-07T10:54:27.863Z,45.09
2018-04-07T10:55:27.851Z,45.56
2018-04-07T10:56:27.854Z,44.61
2018-04-07T10:57:27.833Z,45.12
2018-04-07T10:58:27.781Z,44.84
2018-04-07T10:59:27.891Z,43.63
2018-04-07T11:00:27.874Z,45.23
2018-04-07T11:01:27.892Z,44.99
2018-04-07T11:02:27.839Z,45
2018-04-07T11:03:27.928Z,44.36
2018-04-07T11:04:27.852Z,44.73
2018-04-07T11:05:27.887Z,43.4
2018-04-07T11:06:27.941Z,43.46
2018-04-07T11:07:27.802Z,44.23
2018-04-07T11:08:27.847Z,43.88
2018-04-07T11:09:27.954Z,44.25
2018-04-07T11:10:28.065Z,43.42
2018-04-07T11:11:28.106Z,42.84
2018-04-07T11:12:27.887Z,44.17
2018-04-07T11:13:27.914Z,43
2018-04-07T11:14:27.891Z,43.67
2018-04-07T11:15:27.824Z,43.44
2018-04-07T11:16:27.926Z,43.41
2018-04-07T11:17:27.889Z,42.69
2018-04-07T11:18:27.851Z,42.57
2018-04-07T11:19:27.880Z,41.9
2018-04-07T11:20:27.920Z,41.86
2018-04-07T11:21:27.918Z,41.25
2018-04-07T11:22:27.851Z,41.01
2018-04-07T11:23:27.852Z,42.24
2018-04-07T11:24:27.880Z,40.86
2018-04-07T11:25:27.874Z,42.45
2018-04-07T11:26:27.876Z,42.41
2018-04-07T11:27:27.916Z,42.47
2018-04-07T11:28:27.858Z,41.61
2018-04-07T11:29:27.887Z,41.59
2018-04-07T11:30:27.773Z,41.16
2018-04-07T11:31:27.801Z,41.29
2018-04-07T11:32:27.754Z,41.88
2018-04-07T11:33:27.758Z,40.77
2018-04-07T11:34:27.765Z,41.2
2018-04-07T11:35:27.933Z,39.97
2018-04-07T11:36:27.764Z,40.92
2018-04-07T11:37:27.903Z,39.62
2018-04-07T11:38:27.773Z,39.02
2018-04-07T11:39:27.776Z,40.78
2018-04-07T11:40:27.773Z,41.28
2018-04-07T11:41:27.782Z,41.54
2018-04-07T11:42:27.812Z,40.29
2018-04-07T11:43:27.778Z,40.2
2018-04-07T11:44:27.779Z,39.83
2018-04-07T11:45:27.795Z,40.25
2018-04-07T11:46:27.771Z,39.39
2018-04-07T11:47:27.823Z,40.31
2018-04-07T11:48:27.775Z,40.43
2018-04-07T11:49:27.778Z,38.35
2018-04-07T11:50:27.767Z,38.34
2018-04-07T11:51:27.771Z,39.03
2018-04-07T11:52:27.870Z,39.84
2018-04-07T11:53:27.776Z,40.42
2018-04-07T11:54:27.771Z,40.28
2018-04-07T11:55:27.768Z,38.53
2018-04-07T11:56:27.785Z,39.4
2018-04-07T11:57:27.782Z,39.67
2018-04-07T11:58:27.800Z,39.93
2018-04-07T11:59:27.798Z,39.57
2018-04-07T12:00:27.792Z,40.26
2018-04-07T12:01:27.799Z,39.97
2018-04-07T12:02:28.155Z,39.58
2018-04-07T12:03:27.860Z,39.28
2018-04-07T12:04:27.796Z,39.12
2018-04-07T12:05:27.829Z,39.4
2018-04-07T12:06:27.785Z,39.99
2018-04-07T12:07:27.785Z,39.86
2018-04-07T12:08:28.080Z,39.27
2018-04-07T12:09:27.782Z,38.75
2018-04-07T12:10:27.779Z,39.9
2018-04-07T12:11:28.038Z,39.89
2018-04-07T12:12:27.825Z,40.1
2018-04-07T12:13:27.893Z,39.83
2018-04-07T12:14:27.814Z,39.66
2018-04-07T12:15:27.805Z,39.43
2018-04-07T12:16:27.802Z,38.53
2018-04-07T12:17:27.810Z,38.91
2018-04-07T12:18:27.823Z,38.98
2018-04-07T12:19:27.800Z,38.71
2018-04-07T12:20:27.794Z,38.11
2018-04-07T12:21:27.812Z,38.04
2018-04-07T12:22:27.821Z,37.46
2018-04-07T12:23:28.140Z,38.02
2018-04-07T12:24:27.830Z,38.33
2018-04-07T12:25:27.808Z,38.03
2018-04-07T12:26:27.854Z,38.65
2018-04-07T12:27:27.851Z,38.64
2018-04-07T12:28:27.848Z,38.53
2018-04-07T12:29:27.794Z,37.43
2018-04-07T12:30:27.807Z,38.03
2018-04-07T12:31:27.796Z,38.2
2018-04-07T12:32:27.803Z,38.54
2018-04-07T12:33:27.820Z,37.88
2018-04-07T12:34:27.780Z,38.67
2018-04-07T12:35:27.823Z,38.8
2018-04-07T12:36:27.786Z,37.31
2018-04-07T12:37:27.791Z,37.75
2018-04-07T12:38:27.833Z,38
2018-04-07T12:39:27.899Z,37.53
2018-04-07T12:40:27.785Z,37.72
2018-04-07T12:41:27.819Z,38.23
2018-04-07T12:42:27.827Z,38.34
2018-04-07T12:43:27.810Z,38.82
2018-04-07T12:44:27.817Z,38.75
2018-04-07T12:45:27.812Z,38.05
2018-04-07T12:46:27.802Z,37.57
2018-04-07T12:47:27.838Z,38.03
2018-04-07T12:48:27.836Z,37.9
2018-04-07T12:49:27.811Z,37.18
2018-04-07T12:50:27.810Z,36.92
2018-04-07T12:51:27.827Z,37.02
2018-04-07T12:52:27.806Z,36.89
2018-04-07T12:53:27.892Z,36.8
2018-04-07T12:54:27.833Z,37
2018-04-07T12:55:27.820Z,36.86